PWSweather.com
Personal Weather Stations
Station Observations
WODONGA
Wodonga, WodongaAU 3690

WodongaWodongaAU 3690

Lat: -36.121, Lon: 146.87

Elevation: 541

Station Type: Weather Station

http://www.wodongaweather.net

Latest ConditionsUpdated 5:45:00 PM GMT+10:10 Thursday, Apr 2, 2015
Currently Today's Max Today's Min Today's Average
Temperature 68.0°F20.0°C 81.0°F27.2°C 64.8°F18.2°C 70.6°F21.4°C
Dew Point 34.6°F1.4°C 59.3°F15.2°C 34.0°F1.1°C 49.1°F9.5°C
Winds 4.7 mph W7.6 kmh W 12.0 mph W19.3 kmh W - 5.2 mph 8.4 kmh
Wind Gusts 6.9 mph11.1 kmh 18.3 mph29.5 kmh - -
Humidity 29% 66% 22% 50%
Pressure 30.06 in1017.9 mb 30.06 in1017.9 mb 29.93 in1013.5 mb -
Hour Temp Dew Point Humidity Winds Wind Gusts Pressure Precip Precip Rate Daily Precip Total
05:45 PM 68.0°F20.0°C 34.6°F1.4°C 29% 4.7 mph W7.6 kmh W 6.9 mph11.1 kmh 30.06 in1017.9 mb 0.00 in0.0 mm 0.00 in0.0 mm 0.00 in0.0 mm
05:40 PM 68.5°F20.3°C 35.0°F1.7°C 29% 4.0 mph WNW6.4 kmh WNW 5.4 mph8.7 kmh 30.06 in1017.9 mb 0.00 in0.0 mm 0.00 in0.0 mm 0.00 in0.0 mm
05:35 PM 68.5°F20.3°C 35.0°F1.7°C 29% 4.0 mph WNW6.4 kmh WNW 5.4 mph8.7 kmh 30.06 in1017.9 mb 0.00 in0.0 mm 0.00 in0.0 mm 0.00 in0.0 mm
05:30 PM 68.9°F20.5°C 35.4°F1.9°C 29% 3.9 mph W6.3 kmh W 5.4 mph8.7 kmh 30.05 in1017.6 mb 0.00 in0.0 mm 0.00 in0.0 mm 0.00 in0.0 mm
05:25 PM 68.5°F20.3°C 35.0°F1.7°C 29% 4.6 mph WNW7.4 kmh WNW 6.9 mph11.1 kmh 30.05 in1017.6 mb 0.00 in0.0 mm 0.00 in0.0 mm 0.00 in0.0 mm
05:20 PM 68.4°F20.2°C 34.9°F1.6°C 29% 5.9 mph NW9.5 kmh NW 8.3 mph13.4 kmh 30.05 in1017.6 mb 0.00 in0.0 mm 0.00 in0.0 mm 0.00 in0.0 mm
05:15 PM 68.4°F20.2°C 34.0°F1.1°C 28% 7.5 mph NW12.1 kmh NW 9.8 mph15.8 kmh 30.05 in1017.6 mb 0.00 in0.0 mm 0.00 in0.0 mm 0.00 in0.0 mm
05:10 PM 68.7°F20.4°C 34.3°F1.3°C 28% 7.5 mph WNW12.1 kmh WNW 9.8 mph15.8 kmh 30.05 in1017.6 mb 0.00 in0.0 mm 0.00 in0.0 mm 0.00 in0.0 mm
05:05 PM 68.7°F20.4°C 34.3°F1.3°C 28% 6.5 mph WNW10.5 kmh WNW 8.3 mph13.4 kmh 30.05 in1017.6 mb 0.00 in0.0 mm 0.00 in0.0 mm 0.00 in0.0 mm
05:00 PM 68.9°F20.5°C 34.5°F1.4°C 28% 7.0 mph W11.3 kmh W 13.0 mph20.9 kmh 30.04 in1017.3 mb 0.00 in0.0 mm 0.00 in0.0 mm 0.00 in0.0 mm
04:55 PM 69.1°F20.6°C 34.6°F1.4°C 28% 8.2 mph W13.2 kmh W 13.0 mph20.9 kmh 30.05 in1017.6 mb 0.00 in0.0 mm 0.00 in0.0 mm 0.00 in0.0 mm
04:50 PM 69.8°F21.0°C 34.3°F1.3°C 27% 7.1 mph W11.4 kmh W 13.0 mph20.9 kmh 30.04 in1017.3 mb 0.00 in0.0 mm 0.00 in0.0 mm 0.00 in0.0 mm
04:45 PM 70.2°F21.2°C 35.6°F2.0°C 28% 6.1 mph W9.8 kmh W 8.3 mph13.4 kmh 30.04 in1017.3 mb 0.00 in0.0 mm 0.00 in0.0 mm 0.00 in0.0 mm
04:40 PM 70.2°F21.2°C 34.6°F1.4°C 27% 7.4 mph W11.9 kmh W 9.8 mph15.8 kmh 30.04 in1017.3 mb 0.00 in0.0 mm 0.00 in0.0 mm 0.00 in0.0 mm
04:35 PM 70.3°F21.3°C 34.8°F1.6°C 27% 7.6 mph WNW12.2 kmh WNW 9.8 mph15.8 kmh 30.04 in1017.3 mb 0.00 in0.0 mm 0.00 in0.0 mm 0.00 in0.0 mm
04:30 PM 70.5°F21.4°C 35.0°F1.7°C 27% 6.6 mph WNW10.6 kmh WNW 9.8 mph15.8 kmh 30.04 in1017.3 mb 0.00 in0.0 mm 0.00 in0.0 mm 0.00 in0.0 mm
04:25 PM 71.2°F21.8°C 35.6°F2.0°C 27% 7.3 mph WNW11.7 kmh WNW 11.4 mph18.3 kmh 30.04 in1017.3 mb 0.00 in0.0 mm 0.00 in0.0 mm 0.00 in0.0 mm
04:20 PM 71.6°F22.0°C 35.9°F2.2°C 27% 9.3 mph WNW15.0 kmh WNW 13.0 mph20.9 kmh 30.04 in1017.3 mb 0.00 in0.0 mm 0.00 in0.0 mm 0.00 in0.0 mm
04:15 PM 72.0°F22.2°C 36.2°F2.3°C 27% 8.7 mph WNW14.0 kmh WNW 13.0 mph20.9 kmh 30.04 in1017.3 mb 0.00 in0.0 mm 0.00 in0.0 mm 0.00 in0.0 mm
04:10 PM 72.7°F22.6°C 36.8°F2.7°C 27% 7.6 mph WNW12.2 kmh WNW 11.4 mph18.3 kmh 30.04 in1017.3 mb 0.00 in0.0 mm 0.00 in0.0 mm 0.00 in0.0 mm
04:05 PM 73.6°F23.1°C 36.6°F2.6°C 26% 6.5 mph W10.5 kmh W 11.4 mph18.3 kmh 30.04 in1017.3 mb 0.00 in0.0 mm 0.00 in0.0 mm 0.00 in0.0 mm
04:00 PM 74.7°F23.7°C 37.5°F3.1°C 26% 5.8 mph W9.3 kmh W 9.8 mph15.8 kmh 30.04 in1017.3 mb 0.00 in0.0 mm 0.00 in0.0 mm 0.00 in0.0 mm
03:55 PM 73.9°F23.3°C 36.9°F2.7°C 26% 6.6 mph W10.6 kmh W 9.8 mph15.8 kmh 30.04 in1017.3 mb 0.00 in0.0 mm 0.00 in0.0 mm 0.00 in0.0 mm
03:50 PM 73.8°F23.2°C 36.8°F2.7°C 26% 7.4 mph WSW11.9 kmh WSW 12.1 mph19.5 kmh 30.04 in1017.3 mb 0.00 in0.0 mm 0.00 in0.0 mm 0.00 in0.0 mm
03:45 PM 73.8°F23.2°C 36.8°F2.7°C 26% 7.8 mph W12.6 kmh W 12.1 mph19.5 kmh 30.04 in1017.3 mb 0.00 in0.0 mm 0.00 in0.0 mm 0.00 in0.0 mm
03:40 PM 74.1°F23.4°C 36.1°F2.3°C 25% 7.8 mph W12.6 kmh W 9.8 mph15.8 kmh 30.04 in1017.3 mb 0.00 in0.0 mm 0.00 in0.0 mm 0.00 in0.0 mm
03:35 PM 75.4°F24.1°C 37.1°F2.8°C 25% 6.7 mph W10.8 kmh W 9.8 mph15.8 kmh 30.03 in1016.9 mb 0.00 in0.0 mm 0.00 in0.0 mm 0.00 in0.0 mm
03:30 PM 76.8°F24.9°C 38.4°F3.6°C 25% 5.6 mph W9.0 kmh W 7.6 mph12.2 kmh 30.03 in1016.9 mb 0.00 in0.0 mm 0.00 in0.0 mm 0.00 in0.0 mm
03:25 PM 76.1°F24.5°C 38.8°F3.8°C 26% 6.0 mph W9.7 kmh W 8.3 mph13.4 kmh 30.03 in1016.9 mb 0.00 in0.0 mm 0.00 in0.0 mm 0.00 in0.0 mm
03:20 PM 75.7°F24.3°C 37.5°F3.1°C 25% 7.7 mph W12.4 kmh W 11.4 mph18.3 kmh 30.03 in1016.9 mb 0.00 in0.0 mm 0.00 in0.0 mm 0.00 in0.0 mm
03:15 PM 75.9°F24.4°C 36.6°F2.6°C 24% 8.9 mph W14.3 kmh W 11.4 mph18.3 kmh 30.03 in1016.9 mb 0.00 in0.0 mm 0.00 in0.0 mm 0.00 in0.0 mm
03:10 PM 76.3°F24.6°C 37.9°F3.3°C 25% 8.9 mph W14.3 kmh W 11.4 mph18.3 kmh 30.04 in1017.3 mb 0.00 in0.0 mm 0.00 in0.0 mm 0.00 in0.0 mm
03:05 PM 75.6°F24.2°C 38.3°F3.5°C 26% 9.6 mph W15.4 kmh W 13.0 mph20.9 kmh 30.03 in1016.9 mb 0.00 in0.0 mm 0.00 in0.0 mm 0.00 in0.0 mm
03:00 PM 75.2°F24.0°C 37.0°F2.8°C 25% 10.5 mph WNW16.9 kmh WNW 13.0 mph20.9 kmh 30.02 in1016.6 mb 0.00 in0.0 mm 0.00 in0.0 mm 0.00 in0.0 mm
02:55 PM 75.7°F24.3°C 37.5°F3.1°C 25% 10.4 mph WNW16.7 kmh WNW 13.0 mph20.9 kmh 30.03 in1016.9 mb 0.00 in0.0 mm 0.00 in0.0 mm 0.00 in0.0 mm
02:50 PM 75.9°F24.4°C 37.6°F3.1°C 25% 9.1 mph W14.6 kmh W 13.0 mph20.9 kmh 30.03 in1016.9 mb 0.00 in0.0 mm 0.00 in0.0 mm 0.00 in0.0 mm
02:45 PM 76.6°F24.8°C 37.2°F2.9°C 24% 10.3 mph W16.6 kmh W 15.2 mph24.5 kmh 30.02 in1016.6 mb 0.00 in0.0 mm 0.00 in0.0 mm 0.00 in0.0 mm
02:40 PM 77.4°F25.2°C 35.6°F2.0°C 22% 12.0 mph W19.3 kmh W 15.2 mph24.5 kmh 30.02 in1016.6 mb 0.00 in0.0 mm 0.00 in0.0 mm 0.00 in0.0 mm
02:35 PM 78.4°F25.8°C 36.5°F2.5°C 22% 9.7 mph W15.6 kmh W 13.6 mph21.9 kmh 30.02 in1016.6 mb 0.00 in0.0 mm 0.00 in0.0 mm 0.00 in0.0 mm
02:30 PM 78.8°F26.0°C 37.9°F3.3°C 23% 7.5 mph W12.1 kmh W 13.0 mph20.9 kmh 30.02 in1016.6 mb 0.00 in0.0 mm 0.00 in0.0 mm 0.00 in0.0 mm
02:25 PM 77.4°F25.2°C 38.8°F3.8°C 25% 7.6 mph W12.2 kmh W 13.0 mph20.9 kmh 30.02 in1016.6 mb 0.00 in0.0 mm 0.00 in0.0 mm 0.00 in0.0 mm
02:20 PM 77.4°F25.2°C 37.8°F3.2°C 24% 8.8 mph W14.2 kmh W 13.6 mph21.9 kmh 30.02 in1016.6 mb 0.00 in0.0 mm 0.00 in0.0 mm 0.00 in0.0 mm
02:15 PM 77.0°F25.0°C 38.5°F3.6°C 25% 9.5 mph WNW15.3 kmh WNW 13.6 mph21.9 kmh 30.02 in1016.6 mb 0.00 in0.0 mm 0.00 in0.0 mm 0.00 in0.0 mm
02:10 PM 77.0°F25.0°C 38.5°F3.6°C 25% 9.2 mph WNW14.8 kmh WNW 11.4 mph18.3 kmh 30.02 in1016.6 mb 0.00 in0.0 mm 0.00 in0.0 mm 0.00 in0.0 mm
02:05 PM 77.4°F25.2°C 39.8°F4.3°C 26% 6.9 mph W11.1 kmh W 11.4 mph18.3 kmh 30.02 in1016.6 mb 0.00 in0.0 mm 0.00 in0.0 mm 0.00 in0.0 mm
02:00 PM 76.6°F24.8°C 41.1°F5.1°C 28% 6.2 mph WSW10.0 kmh WSW 9.8 mph15.8 kmh 30.03 in1016.9 mb 0.00 in0.0 mm 0.00 in0.0 mm 0.00 in0.0 mm
01:55 PM 75.9°F24.4°C 40.5°F4.7°C 28% 8.3 mph W13.4 kmh W 11.4 mph18.3 kmh 30.03 in1016.9 mb 0.00 in0.0 mm 0.00 in0.0 mm 0.00 in0.0 mm
01:50 PM 74.7°F23.7°C 38.5°F3.6°C 27% 9.0 mph WNW14.5 kmh WNW 11.4 mph18.3 kmh 30.02 in1016.6 mb 0.00 in0.0 mm 0.00 in0.0 mm 0.00 in0.0 mm
01:45 PM 74.8°F23.8°C 35.7°F2.1°C 24% 9.5 mph W15.3 kmh W 12.1 mph19.5 kmh 30.02 in1016.6 mb 0.00 in0.0 mm 0.00 in0.0 mm 0.00 in0.0 mm
01:40 PM 73.8°F23.2°C 36.8°F2.7°C 26% 10.7 mph W17.2 kmh W 15.2 mph24.5 kmh 30.02 in1016.6 mb 0.00 in0.0 mm 0.00 in0.0 mm 0.00 in0.0 mm
01:35 PM 73.6°F23.1°C 41.9°F5.5°C 32% 12.0 mph WNW19.3 kmh WNW 15.2 mph24.5 kmh 30.03 in1016.9 mb 0.00 in0.0 mm 0.00 in0.0 mm 0.00 in0.0 mm
01:30 PM 74.1°F23.4°C 44.0°F6.7°C 34% 12.0 mph W19.3 kmh W 14.5 mph23.3 kmh 30.03 in1016.9 mb 0.00 in0.0 mm 0.00 in0.0 mm 0.00 in0.0 mm
01:25 PM 74.7°F23.7°C 45.2°F7.3°C 35% 10.8 mph WSW17.4 kmh WSW 14.5 mph23.3 kmh 30.03 in1016.9 mb 0.00 in0.0 mm 0.00 in0.0 mm 0.00 in0.0 mm
01:20 PM 75.6°F24.2°C 45.3°F7.4°C 34% 9.9 mph W15.9 kmh W 13.6 mph21.9 kmh 30.03 in1016.9 mb 0.00 in0.0 mm 0.00 in0.0 mm 0.00 in0.0 mm
01:15 PM 75.9°F24.4°C 44.8°F7.1°C 33% 8.3 mph W13.4 kmh W 10.7 mph17.2 kmh 30.02 in1016.6 mb 0.00 in0.0 mm 0.00 in0.0 mm 0.00 in0.0 mm
01:10 PM 76.5°F24.7°C 44.4°F6.9°C 32% 8.7 mph W14.0 kmh W 12.1 mph19.5 kmh 30.02 in1016.6 mb 0.00 in0.0 mm 0.00 in0.0 mm 0.00 in0.0 mm
01:05 PM 76.6°F24.8°C 44.6°F7.0°C 32% 10.2 mph NW16.4 kmh NW 13.0 mph20.9 kmh 30.02 in1016.6 mb 0.00 in0.0 mm 0.00 in0.0 mm 0.00 in0.0 mm
01:00 PM 77.2°F25.1°C 45.1°F7.3°C 32% 10.8 mph NW17.4 kmh NW 13.0 mph20.9 kmh 30.02 in1016.6 mb 0.00 in0.0 mm 0.00 in0.0 mm 0.00 in0.0 mm
12:55 PM 77.5°F25.3°C 44.6°F7.0°C 31% 12.0 mph WNW19.3 kmh WNW 16.8 mph27.0 kmh 30.02 in1016.6 mb 0.00 in0.0 mm 0.00 in0.0 mm 0.00 in0.0 mm
12:50 PM 78.4°F25.8°C 44.5°F6.9°C 30% 11.3 mph W18.2 kmh W 16.8 mph27.0 kmh 30.03 in1016.9 mb 0.00 in0.0 mm 0.00 in0.0 mm 0.00 in0.0 mm
12:45 PM 79.3°F26.3°C 44.4°F6.9°C 29% 9.5 mph W15.3 kmh W 11.4 mph18.3 kmh 30.03 in1016.9 mb 0.00 in0.0 mm 0.00 in0.0 mm 0.00 in0.0 mm
12:40 PM 78.3°F25.7°C 44.3°F6.8°C 30% 10.1 mph NW16.3 kmh NW 14.5 mph23.3 kmh 30.03 in1016.9 mb 0.00 in0.0 mm 0.00 in0.0 mm 0.00 in0.0 mm
12:35 PM 77.4°F25.2°C 42.7°F5.9°C 29% 10.1 mph WNW16.3 kmh WNW 14.5 mph23.3 kmh 30.03 in1016.9 mb 0.00 in0.0 mm 0.00 in0.0 mm 0.00 in0.0 mm
12:30 PM 78.4°F25.8°C 42.7°F5.9°C 28% 9.0 mph WNW14.5 kmh WNW 14.5 mph23.3 kmh 30.03 in1016.9 mb 0.00 in0.0 mm 0.00 in0.0 mm 0.00 in0.0 mm
12:25 PM 79.3°F26.3°C 42.5°F5.8°C 27% 8.5 mph WNW13.7 kmh WNW 13.6 mph21.9 kmh 30.03 in1016.9 mb 0.00 in0.0 mm 0.00 in0.0 mm 0.00 in0.0 mm
12:20 PM 79.9°F26.6°C 43.9°F6.6°C 28% 9.7 mph WNW15.6 kmh WNW 14.5 mph23.3 kmh 30.03 in1016.9 mb 0.00 in0.0 mm 0.00 in0.0 mm 0.00 in0.0 mm
12:15 PM 79.2°F26.2°C 43.3°F6.3°C 28% 10.7 mph WNW17.2 kmh WNW 14.5 mph23.3 kmh 30.03 in1016.9 mb 0.00 in0.0 mm 0.00 in0.0 mm 0.00 in0.0 mm
12:10 PM 80.1°F26.7°C 45.0°F7.2°C 29% 10.0 mph W16.1 kmh W 15.2 mph24.5 kmh 30.03 in1016.9 mb 0.00 in0.0 mm 0.00 in0.0 mm 0.00 in0.0 mm
12:05 PM 80.2°F26.8°C 46.0°F7.8°C 30% 9.4 mph WSW15.1 kmh WSW 18.3 mph29.5 kmh 30.03 in1016.9 mb 0.00 in0.0 mm 0.00 in0.0 mm 0.00 in0.0 mm
12:00 PM 79.9°F26.6°C 46.6°F8.1°C 31% 11.3 mph W18.2 kmh W 18.3 mph29.5 kmh 30.03 in1016.9 mb 0.00 in0.0 mm 0.00 in0.0 mm 0.00 in0.0 mm
11:55 AM 79.3°F26.3°C 47.8°F8.8°C 33% 11.2 mph W18.0 kmh W 18.3 mph29.5 kmh 30.04 in1017.3 mb 0.00 in0.0 mm 0.00 in0.0 mm 0.00 in0.0 mm
11:50 AM 80.1°F26.7°C 50.0°F10.0°C 35% 8.0 mph W12.9 kmh W 12.1 mph19.5 kmh 30.04 in1017.3 mb 0.00 in0.0 mm 0.00 in0.0 mm 0.00 in0.0 mm
11:45 AM 80.6°F27.0°C 52.0°F11.1°C 37% 7.1 mph W11.4 kmh W 11.4 mph18.3 kmh 30.04 in1017.3 mb 0.00 in0.0 mm 0.00 in0.0 mm 0.00 in0.0 mm
11:40 AM 80.4°F26.9°C 51.8°F11.0°C 37% 6.3 mph W10.1 kmh W 11.4 mph18.3 kmh 30.04 in1017.3 mb 0.00 in0.0 mm 0.00 in0.0 mm 0.00 in0.0 mm
11:35 AM 80.8°F27.1°C 53.6°F12.0°C 39% 6.5 mph WSW10.5 kmh WSW 10.7 mph17.2 kmh 30.04 in1017.3 mb 0.00 in0.0 mm 0.00 in0.0 mm 0.00 in0.0 mm
11:30 AM 81.0°F27.2°C 53.0°F11.7°C 38% 7.0 mph W11.3 kmh W 9.8 mph15.8 kmh 30.04 in1017.3 mb 0.00 in0.0 mm 0.00 in0.0 mm 0.00 in0.0 mm
11:25 AM 80.6°F27.0°C 54.1°F12.3°C 40% 7.2 mph WNW11.6 kmh WNW 9.8 mph15.8 kmh 30.04 in1017.3 mb 0.00 in0.0 mm 0.00 in0.0 mm 0.00 in0.0 mm
11:20 AM 80.8°F27.1°C 53.6°F12.0°C 39% 7.1 mph WSW11.4 kmh WSW 9.8 mph15.8 kmh 30.05 in1017.6 mb 0.00 in0.0 mm 0.00 in0.0 mm 0.00 in0.0 mm
11:15 AM 81.0°F27.2°C 53.7°F12.1°C 39% 5.9 mph WSW9.5 kmh WSW 8.3 mph13.4 kmh 30.04 in1017.3 mb 0.00 in0.0 mm 0.00 in0.0 mm 0.00 in0.0 mm
11:10 AM 81.0°F27.2°C 53.0°F11.7°C 38% 6.2 mph W10.0 kmh W 10.7 mph17.2 kmh 30.04 in1017.3 mb 0.00 in0.0 mm 0.00 in0.0 mm 0.00 in0.0 mm
11:05 AM 80.2°F26.8°C 55.8°F13.2°C 43% 7.0 mph W11.3 kmh W 10.7 mph17.2 kmh 30.04 in1017.3 mb 0.00 in0.0 mm 0.00 in0.0 mm 0.00 in0.0 mm
11:00 AM 79.2°F26.2°C 55.4°F13.0°C 44% 8.4 mph WNW13.5 kmh WNW 12.1 mph19.5 kmh 30.04 in1017.3 mb 0.00 in0.0 mm 0.00 in0.0 mm 0.00 in0.0 mm
10:55 AM 78.8°F26.0°C 55.7°F13.2°C 45% 7.7 mph WNW12.4 kmh WNW 12.1 mph19.5 kmh 30.05 in1017.6 mb 0.00 in0.0 mm 0.00 in0.0 mm 0.00 in0.0 mm
10:50 AM 78.6°F25.9°C 56.7°F13.7°C 47% 6.8 mph W10.9 kmh W 9.8 mph15.8 kmh 30.05 in1017.6 mb 0.00 in0.0 mm 0.00 in0.0 mm 0.00 in0.0 mm
10:45 AM 77.5°F25.3°C 56.3°F13.5°C 48% 7.7 mph W12.4 kmh W 9.8 mph15.8 kmh 30.05 in1017.6 mb 0.00 in0.0 mm 0.00 in0.0 mm 0.00 in0.0 mm
10:40 AM 77.0°F25.0°C 57.5°F14.2°C 51% 9.1 mph WSW14.6 kmh WSW 13.0 mph20.9 kmh 30.05 in1017.6 mb 0.00 in0.0 mm 0.00 in0.0 mm 0.00 in0.0 mm
10:35 AM 76.6°F24.8°C 57.2°F14.0°C 51% 10.8 mph W17.4 kmh W 13.0 mph20.9 kmh 30.05 in1017.6 mb 0.00 in0.0 mm 0.00 in0.0 mm 0.00 in0.0 mm
10:30 AM 77.2°F25.1°C 57.7°F14.3°C 51% 9.8 mph W15.8 kmh W 13.0 mph20.9 kmh 30.05 in1017.6 mb 0.00 in0.0 mm 0.00 in0.0 mm 0.00 in0.0 mm
10:25 AM 77.5°F25.3°C 58.6°F14.8°C 52% 7.5 mph WNW12.1 kmh WNW 11.4 mph18.3 kmh 30.05 in1017.6 mb 0.00 in0.0 mm 0.00 in0.0 mm 0.00 in0.0 mm
10:20 AM 77.5°F25.3°C 59.1°F15.1°C 53% 7.4 mph W11.9 kmh W 10.7 mph17.2 kmh 30.06 in1017.9 mb 0.00 in0.0 mm 0.00 in0.0 mm 0.00 in0.0 mm
10:15 AM 77.0°F25.0°C 59.1°F15.1°C 54% 8.7 mph WNW14.0 kmh WNW 10.7 mph17.2 kmh 30.06 in1017.9 mb 0.00 in0.0 mm 0.00 in0.0 mm 0.00 in0.0 mm
10:10 AM 76.8°F24.9°C 59.0°F15.0°C 54% 7.2 mph W11.6 kmh W 10.7 mph17.2 kmh 30.05 in1017.6 mb 0.00 in0.0 mm 0.00 in0.0 mm 0.00 in0.0 mm
10:05 AM 77.2°F25.1°C 59.3°F15.2°C 54% 5.7 mph SSW9.2 kmh SSW 9.2 mph14.8 kmh 30.05 in1017.6 mb 0.00 in0.0 mm 0.00 in0.0 mm 0.00 in0.0 mm
10:00 AM 76.3°F24.6°C 59.0°F15.0°C 55% 6.6 mph SW10.6 kmh SW 12.1 mph19.5 kmh 30.05 in1017.6 mb 0.00 in0.0 mm 0.00 in0.0 mm 0.00 in0.0 mm
09:55 AM 75.9°F24.4°C 59.1°F15.1°C 56% 7.5 mph W12.1 kmh W 12.1 mph19.5 kmh 30.05 in1017.6 mb 0.00 in0.0 mm 0.00 in0.0 mm 0.00 in0.0 mm
09:50 AM 75.2°F24.0°C 58.5°F14.7°C 56% 7.5 mph W12.1 kmh W 11.4 mph18.3 kmh 30.05 in1017.6 mb 0.00 in0.0 mm 0.00 in0.0 mm 0.00 in0.0 mm
09:45 AM 74.3°F23.5°C 58.1°F14.5°C 57% 8.1 mph WNW13.0 kmh WNW 11.4 mph18.3 kmh 30.05 in1017.6 mb 0.00 in0.0 mm 0.00 in0.0 mm 0.00 in0.0 mm
09:40 AM 73.4°F23.0°C 57.8°F14.3°C 58% 8.7 mph WNW14.0 kmh WNW 12.1 mph19.5 kmh 30.05 in1017.6 mb 0.00 in0.0 mm 0.00 in0.0 mm 0.00 in0.0 mm
09:35 AM 71.8°F22.1°C 57.2°F14.0°C 60% 8.3 mph NW13.4 kmh NW 12.1 mph19.5 kmh 30.05 in1017.6 mb 0.00 in0.0 mm 0.00 in0.0 mm 0.00 in0.0 mm
09:30 AM 71.4°F21.9°C 56.4°F13.6°C 59% 8.3 mph NW13.4 kmh NW 10.7 mph17.2 kmh 30.05 in1017.6 mb 0.00 in0.0 mm 0.00 in0.0 mm 0.00 in0.0 mm
09:25 AM 71.4°F21.9°C 56.8°F13.8°C 60% 8.9 mph NW14.3 kmh NW 12.1 mph19.5 kmh 30.04 in1017.3 mb 0.00 in0.0 mm 0.00 in0.0 mm 0.00 in0.0 mm
09:20 AM 71.1°F21.7°C 57.0°F13.9°C 61% 8.7 mph NW14.0 kmh NW 12.1 mph19.5 kmh 30.04 in1017.3 mb 0.00 in0.0 mm 0.00 in0.0 mm 0.00 in0.0 mm
09:15 AM 70.3°F21.3°C 56.3°F13.5°C 61% 7.5 mph NW12.1 kmh NW 9.2 mph14.8 kmh 30.04 in1017.3 mb 0.00 in0.0 mm 0.00 in0.0 mm 0.00 in0.0 mm
09:10 AM 70.3°F21.3°C 56.7°F13.7°C 62% 6.3 mph NW10.1 kmh NW 9.2 mph14.8 kmh 30.04 in1017.3 mb 0.00 in0.0 mm 0.00 in0.0 mm 0.00 in0.0 mm
09:05 AM 69.6°F20.9°C 56.5°F13.6°C 63% 5.5 mph NW8.9 kmh NW 7.6 mph12.2 kmh 30.04 in1017.3 mb 0.00 in0.0 mm 0.00 in0.0 mm 0.00 in0.0 mm
09:00 AM 69.3°F20.7°C 55.7°F13.2°C 62% 5.7 mph NW9.2 kmh NW 8.3 mph13.4 kmh 30.04 in1017.3 mb 0.00 in0.0 mm 0.00 in0.0 mm 0.00 in0.0 mm
08:55 AM 69.3°F20.7°C 56.2°F13.4°C 63% 5.6 mph NW9.0 kmh NW 8.3 mph13.4 kmh 30.03 in1016.9 mb 0.00 in0.0 mm 0.00 in0.0 mm 0.00 in0.0 mm
08:50 AM 68.9°F20.5°C 55.8°F13.2°C 63% 5.6 mph NW9.0 kmh NW 7.6 mph12.2 kmh 30.03 in1016.9 mb 0.00 in0.0 mm 0.00 in0.0 mm 0.00 in0.0 mm
08:45 AM 68.9°F20.5°C 55.8°F13.2°C 63% 6.0 mph NW9.7 kmh NW 7.6 mph12.2 kmh 30.03 in1016.9 mb 0.00 in0.0 mm 0.00 in0.0 mm 0.00 in0.0 mm
08:40 AM 69.1°F20.6°C 55.5°F13.1°C 62% 5.9 mph WNW9.5 kmh WNW 6.9 mph11.1 kmh 30.03 in1016.9 mb 0.00 in0.0 mm 0.00 in0.0 mm 0.00 in0.0 mm
08:35 AM 69.3°F20.7°C 55.7°F13.2°C 62% 6.0 mph NW9.7 kmh NW 9.2 mph14.8 kmh 30.03 in1016.9 mb 0.00 in0.0 mm 0.00 in0.0 mm 0.00 in0.0 mm
08:30 AM 68.9°F20.5°C 55.8°F13.2°C 63% 6.0 mph NW9.7 kmh NW 9.2 mph14.8 kmh 30.03 in1016.9 mb 0.00 in0.0 mm 0.00 in0.0 mm 0.00 in0.0 mm
08:25 AM 68.4°F20.2°C 55.3°F12.9°C 63% 5.3 mph NW8.5 kmh NW 6.9 mph11.1 kmh 30.03 in1016.9 mb 0.00 in0.0 mm 0.00 in0.0 mm 0.00 in0.0 mm
08:20 AM 68.0°F20.0°C 55.0°F12.8°C 63% 4.9 mph WNW7.9 kmh WNW 6.0 mph9.7 kmh 30.02 in1016.6 mb 0.00 in0.0 mm 0.00 in0.0 mm 0.00 in0.0 mm
08:15 AM 67.8°F19.9°C 55.2°F12.9°C 64% 3.9 mph WNW6.3 kmh WNW 6.0 mph9.7 kmh 30.02 in1016.6 mb 0.00 in0.0 mm 0.00 in0.0 mm 0.00 in0.0 mm
08:10 AM 67.6°F19.8°C 54.6°F12.6°C 63% 3.3 mph W5.3 kmh W 4.5 mph7.2 kmh 30.02 in1016.6 mb 0.00 in0.0 mm 0.00 in0.0 mm 0.00 in0.0 mm
08:05 AM 67.5°F19.7°C 54.9°F12.7°C 64% 3.6 mph WNW5.8 kmh WNW 5.4 mph8.7 kmh 30.02 in1016.6 mb 0.00 in0.0 mm 0.00 in0.0 mm 0.00 in0.0 mm
08:00 AM 67.1°F19.5°C 54.5°F12.5°C 64% 2.8 mph NW4.5 kmh NW 5.4 mph8.7 kmh 30.02 in1016.6 mb 0.00 in0.0 mm 0.00 in0.0 mm 0.00 in0.0 mm
07:55 AM 67.1°F19.5°C 54.5°F12.5°C 64% 1.7 mph W2.7 kmh W 3.1 mph5.0 kmh 30.02 in1016.6 mb 0.00 in0.0 mm 0.00 in0.0 mm 0.00 in0.0 mm
07:50 AM 66.7°F19.3°C 54.6°F12.6°C 65% 1.4 mph W2.3 kmh W 2.2 mph3.5 kmh 30.02 in1016.6 mb 0.00 in0.0 mm 0.00 in0.0 mm 0.00 in0.0 mm
07:45 AM 66.6°F19.2°C 54.5°F12.5°C 65% 1.4 mph WNW2.3 kmh WNW 2.2 mph3.5 kmh 30.02 in1016.6 mb 0.00 in0.0 mm 0.00 in0.0 mm 0.00 in0.0 mm
07:40 AM 66.2°F19.0°C 54.5°F12.5°C 66% 0.7 mph WNW1.1 kmh WNW 1.6 mph2.6 kmh 30.02 in1016.6 mb 0.00 in0.0 mm 0.00 in0.0 mm 0.00 in0.0 mm
07:35 AM 66.0°F18.9°C 54.4°F12.4°C 66% Calm Calm -- 30.02 in1016.6 mb 0.00 in0.0 mm 0.00 in0.0 mm 0.00 in0.0 mm
07:30 AM 65.8°F18.8°C 53.8°F12.1°C 65% 0.4 mph WSW0.6 kmh WSW 2.2 mph3.5 kmh 30.02 in1016.6 mb 0.00 in0.0 mm 0.00 in0.0 mm 0.00 in0.0 mm
07:25 AM 65.7°F18.7°C 53.6°F12.0°C 65% 0.6 mph SW1.0 kmh SW 2.2 mph3.5 kmh 30.01 in1016.3 mb 0.00 in0.0 mm 0.00 in0.0 mm 0.00 in0.0 mm
07:20 AM 65.5°F18.6°C 53.8°F12.1°C 66% 1.3 mph NNW2.1 kmh NNW 3.8 mph6.1 kmh 30.01 in1016.3 mb 0.00 in0.0 mm 0.00 in0.0 mm 0.00 in0.0 mm
07:15 AM 65.1°F18.4°C 53.1°F11.7°C 65% 2.9 mph N4.7 kmh N 5.4 mph8.7 kmh 30.01 in1016.3 mb 0.00 in0.0 mm 0.00 in0.0 mm 0.00 in0.0 mm
07:10 AM 65.1°F18.4°C 53.1°F11.7°C 65% 3.5 mph N5.6 kmh N 5.4 mph8.7 kmh 30.01 in1016.3 mb 0.00 in0.0 mm 0.00 in0.0 mm 0.00 in0.0 mm
07:05 AM 65.1°F18.4°C 53.1°F11.7°C 65% 3.1 mph N5.0 kmh N 5.4 mph8.7 kmh 30.01 in1016.3 mb 0.00 in0.0 mm 0.00 in0.0 mm 0.00 in0.0 mm
07:00 AM 65.3°F18.5°C 52.8°F11.6°C 64% 2.7 mph NW4.3 kmh NW 3.8 mph6.1 kmh 30.01 in1016.3 mb 0.00 in0.0 mm 0.00 in0.0 mm 0.00 in0.0 mm
06:55 AM 65.3°F18.5°C 52.8°F11.6°C 64% 3.1 mph WNW5.0 kmh WNW 4.5 mph7.2 kmh 30.01 in1016.3 mb 0.00 in0.0 mm 0.00 in0.0 mm 0.00 in0.0 mm
06:50 AM 65.3°F18.5°C 52.8°F11.6°C 64% 4.6 mph W7.4 kmh W 6.9 mph11.1 kmh 30.01 in1016.3 mb 0.00 in0.0 mm 0.00 in0.0 mm 0.00 in0.0 mm
06:45 AM 65.3°F18.5°C 52.8°F11.6°C 64% 5.3 mph W8.5 kmh W 6.9 mph11.1 kmh 30.01 in1016.3 mb 0.00 in0.0 mm 0.00 in0.0 mm 0.00 in0.0 mm
06:40 AM 65.3°F18.5°C 52.8°F11.6°C 64% 4.2 mph WNW6.8 kmh WNW 6.0 mph9.7 kmh 30.01 in1016.3 mb 0.00 in0.0 mm 0.00 in0.0 mm 0.00 in0.0 mm
06:35 AM 65.5°F18.6°C 53.0°F11.7°C 64% 3.4 mph WNW5.5 kmh WNW 4.5 mph7.2 kmh 30.00 in1015.9 mb 0.00 in0.0 mm 0.00 in0.0 mm 0.00 in0.0 mm
06:30 AM 65.5°F18.6°C 53.0°F11.7°C 64% 4.2 mph WNW6.8 kmh WNW 5.4 mph8.7 kmh 29.99 in1015.6 mb 0.00 in0.0 mm 0.00 in0.0 mm 0.00 in0.0 mm
06:25 AM 65.5°F18.6°C 53.0°F11.7°C 64% 4.6 mph WNW7.4 kmh WNW 6.9 mph11.1 kmh 29.99 in1015.6 mb 0.00 in0.0 mm 0.00 in0.0 mm 0.00 in0.0 mm
06:20 AM 65.5°F18.6°C 53.0°F11.7°C 64% 3.9 mph WNW6.3 kmh WNW 6.9 mph11.1 kmh 29.99 in1015.6 mb 0.00 in0.0 mm 0.00 in0.0 mm 0.00 in0.0 mm
06:15 AM 65.5°F18.6°C 53.0°F11.7°C 64% 3.3 mph NW5.3 kmh NW 4.5 mph7.2 kmh 29.99 in1015.6 mb 0.00 in0.0 mm 0.00 in0.0 mm 0.00 in0.0 mm
06:10 AM 65.5°F18.6°C 53.0°F11.7°C 64% 3.0 mph NNW4.8 kmh NNW 3.1 mph5.0 kmh 29.99 in1015.6 mb 0.00 in0.0 mm 0.00 in0.0 mm 0.00 in0.0 mm
06:05 AM 65.3°F18.5°C 52.8°F11.6°C 64% 2.8 mph NNW4.5 kmh NNW 3.8 mph6.1 kmh 29.98 in1015.2 mb 0.00 in0.0 mm 0.00 in0.0 mm 0.00 in0.0 mm
06:00 AM 65.7°F18.7°C 53.2°F11.8°C 64% 2.2 mph NNW3.5 kmh NNW 3.8 mph6.1 kmh 29.98 in1015.2 mb 0.00 in0.0 mm 0.00 in0.0 mm 0.00 in0.0 mm
05:55 AM 65.7°F18.7°C 52.7°F11.5°C 63% 1.8 mph WNW2.9 kmh WNW 2.2 mph3.5 kmh 29.98 in1015.2 mb 0.00 in0.0 mm 0.00 in0.0 mm 0.00 in0.0 mm
05:50 AM 65.7°F18.7°C 52.7°F11.5°C 63% 2.7 mph W4.3 kmh W 3.8 mph6.1 kmh 29.98 in1015.2 mb 0.00 in0.0 mm 0.00 in0.0 mm 0.00 in0.0 mm
05:45 AM 65.7°F18.7°C 52.7°F11.5°C 63% 3.1 mph W5.0 kmh W 3.8 mph6.1 kmh 29.98 in1015.2 mb 0.00 in0.0 mm 0.00 in0.0 mm 0.00 in0.0 mm
05:40 AM 65.7°F18.7°C 52.7°F11.5°C 63% 2.2 mph W3.5 kmh W 3.8 mph6.1 kmh 29.98 in1015.2 mb 0.00 in0.0 mm 0.00 in0.0 mm 0.00 in0.0 mm
05:35 AM 65.7°F18.7°C 52.7°F11.5°C 63% 2.3 mph WNW3.7 kmh WNW 3.8 mph6.1 kmh 29.97 in1014.9 mb 0.00 in0.0 mm 0.00 in0.0 mm 0.00 in0.0 mm
05:30 AM 65.7°F18.7°C 52.7°F11.5°C 63% 2.7 mph NW4.3 kmh NW 3.8 mph6.1 kmh 29.97 in1014.9 mb 0.00 in0.0 mm 0.00 in0.0 mm 0.00 in0.0 mm
05:25 AM 65.7°F18.7°C 52.7°F11.5°C 63% 1.8 mph WNW2.9 kmh WNW 3.8 mph6.1 kmh 29.97 in1014.9 mb 0.00 in0.0 mm 0.00 in0.0 mm 0.00 in0.0 mm
05:20 AM 65.7°F18.7°C 52.7°F11.5°C 63% 0.9 mph WSW1.4 kmh WSW 1.6 mph2.6 kmh 29.96 in1014.6 mb 0.00 in0.0 mm 0.00 in0.0 mm 0.00 in0.0 mm
05:15 AM 65.8°F18.8°C 52.9°F11.6°C 63% 1.1 mph W1.8 kmh W 3.1 mph5.0 kmh 29.96 in1014.6 mb 0.00 in0.0 mm 0.00 in0.0 mm 0.00 in0.0 mm
05:10 AM 66.0°F18.9°C 53.1°F11.7°C 63% 2.2 mph NW3.5 kmh NW 3.8 mph6.1 kmh 29.96 in1014.6 mb 0.00 in0.0 mm 0.00 in0.0 mm 0.00 in0.0 mm
05:05 AM 66.2°F19.0°C 53.3°F11.8°C 63% 2.7 mph NW4.3 kmh NW 3.8 mph6.1 kmh 29.96 in1014.6 mb 0.00 in0.0 mm 0.00 in0.0 mm 0.00 in0.0 mm
05:00 AM 66.2°F19.0°C 53.3°F11.8°C 63% 2.1 mph NW3.4 kmh NW 3.1 mph5.0 kmh 29.96 in1014.6 mb 0.00 in0.0 mm 0.00 in0.0 mm 0.00 in0.0 mm
04:55 AM 66.4°F19.1°C 53.0°F11.7°C 62% 2.1 mph WNW3.4 kmh WNW 3.1 mph5.0 kmh 29.95 in1014.2 mb 0.00 in0.0 mm 0.00 in0.0 mm 0.00 in0.0 mm
04:50 AM 66.4°F19.1°C 53.0°F11.7°C 62% 2.7 mph W4.3 kmh W 3.8 mph6.1 kmh 29.96 in1014.6 mb 0.00 in0.0 mm 0.00 in0.0 mm 0.00 in0.0 mm
04:45 AM 66.6°F19.2°C 53.2°F11.8°C 62% 2.7 mph WNW4.3 kmh WNW 3.8 mph6.1 kmh 29.96 in1014.6 mb 0.00 in0.0 mm 0.00 in0.0 mm 0.00 in0.0 mm
04:40 AM 66.6°F19.2°C 53.2°F11.8°C 62% 3.2 mph NW5.1 kmh NW 5.4 mph8.7 kmh 29.95 in1014.2 mb 0.00 in0.0 mm 0.00 in0.0 mm 0.00 in0.0 mm
04:35 AM 66.6°F19.2°C 53.2°F11.8°C 62% 3.6 mph NW5.8 kmh NW 5.4 mph8.7 kmh 29.95 in1014.2 mb 0.00 in0.0 mm 0.00 in0.0 mm 0.00 in0.0 mm
04:30 AM 66.6°F19.2°C 53.2°F11.8°C 62% 3.3 mph NW5.3 kmh NW 4.5 mph7.2 kmh 29.95 in1014.2 mb 0.00 in0.0 mm 0.00 in0.0 mm 0.00 in0.0 mm
04:25 AM 66.6°F19.2°C 52.7°F11.5°C 61% 4.2 mph NW6.8 kmh NW 6.0 mph9.7 kmh 29.95 in1014.2 mb 0.00 in0.0 mm 0.00 in0.0 mm 0.00 in0.0 mm
04:20 AM 66.6°F19.2°C 53.2°F11.8°C 62% 4.4 mph NW7.1 kmh NW 6.0 mph9.7 kmh 29.96 in1014.6 mb 0.00 in0.0 mm 0.00 in0.0 mm 0.00 in0.0 mm
04:15 AM 66.4°F19.1°C 53.0°F11.7°C 62% 3.8 mph NW6.1 kmh NW 6.0 mph9.7 kmh 29.95 in1014.2 mb 0.00 in0.0 mm 0.00 in0.0 mm 0.00 in0.0 mm
04:10 AM 66.2°F19.0°C 53.3°F11.8°C 63% 3.2 mph WNW5.1 kmh WNW 5.4 mph8.7 kmh 29.95 in1014.2 mb 0.00 in0.0 mm 0.00 in0.0 mm 0.00 in0.0 mm
04:05 AM 65.7°F18.7°C 53.2°F11.8°C 64% 2.3 mph WNW3.7 kmh WNW 3.8 mph6.1 kmh 29.95 in1014.2 mb 0.00 in0.0 mm 0.00 in0.0 mm 0.00 in0.0 mm
04:00 AM 65.3°F18.5°C 53.3°F11.8°C 65% 2.0 mph NW3.2 kmh NW 3.1 mph5.0 kmh 29.95 in1014.2 mb 0.00 in0.0 mm 0.00 in0.0 mm 0.00 in0.0 mm
03:55 AM 64.9°F18.3°C 53.3°F11.8°C 66% 1.4 mph NW2.3 kmh NW 3.1 mph5.0 kmh 29.95 in1014.2 mb 0.00 in0.0 mm 0.00 in0.0 mm 0.00 in0.0 mm
03:50 AM 64.8°F18.2°C 53.2°F11.8°C 66% 0.6 mph NNW1.0 kmh NNW 1.6 mph2.6 kmh 29.95 in1014.2 mb 0.00 in0.0 mm 0.00 in0.0 mm 0.00 in0.0 mm
03:45 AM 64.9°F18.3°C 53.3°F11.8°C 66% 0.5 mph WNW0.8 kmh WNW 2.2 mph3.5 kmh 29.95 in1014.2 mb 0.00 in0.0 mm 0.00 in0.0 mm 0.00 in0.0 mm
03:40 AM 65.1°F18.4°C 53.1°F11.7°C 65% 1.2 mph WSW1.9 kmh WSW 2.2 mph3.5 kmh 29.95 in1014.2 mb 0.00 in0.0 mm 0.00 in0.0 mm 0.00 in0.0 mm
03:35 AM 64.9°F18.3°C 52.9°F11.6°C 65% 1.6 mph SW2.6 kmh SW 3.1 mph5.0 kmh 29.95 in1014.2 mb 0.00 in0.0 mm 0.00 in0.0 mm 0.00 in0.0 mm
03:30 AM 64.9°F18.3°C 52.9°F11.6°C 65% 1.5 mph SW2.4 kmh SW 3.1 mph5.0 kmh 29.95 in1014.2 mb 0.00 in0.0 mm 0.00 in0.0 mm 0.00 in0.0 mm
03:25 AM 64.9°F18.3°C 53.3°F11.8°C 66% 1.2 mph SSW1.9 kmh SSW 3.1 mph5.0 kmh 29.95 in1014.2 mb 0.00 in0.0 mm 0.00 in0.0 mm 0.00 in0.0 mm
03:20 AM 64.9°F18.3°C 53.3°F11.8°C 66% 1.4 mph SSW2.3 kmh SSW 3.1 mph5.0 kmh 29.93 in1013.5 mb 0.00 in0.0 mm 0.00 in0.0 mm 0.00 in0.0 mm
03:15 AM 64.8°F18.2°C 53.2°F11.8°C 66% 1.6 mph SSW2.6 kmh SSW 3.1 mph5.0 kmh 29.93 in1013.5 mb 0.00 in0.0 mm 0.00 in0.0 mm 0.00 in0.0 mm
03:10 AM 64.8°F18.2°C 53.2°F11.8°C 66% 1.6 mph S2.6 kmh S 2.2 mph3.5 kmh 29.94 in1013.9 mb 0.00 in0.0 mm 0.00 in0.0 mm 0.00 in0.0 mm
03:05 AM 64.9°F18.3°C 52.9°F11.6°C 65% 1.7 mph S2.7 kmh S 2.2 mph3.5 kmh 29.93 in1013.5 mb 0.00 in0.0 mm 0.00 in0.0 mm 0.00 in0.0 mm
03:00 AM 64.9°F18.3°C 53.3°F11.8°C 66% 1.9 mph S3.1 kmh S 3.1 mph5.0 kmh 29.93 in1013.5 mb 0.00 in0.0 mm 0.00 in0.0 mm 0.00 in0.0 mm
02:55 AM 64.9°F18.3°C 52.9°F11.6°C 65% 1.9 mph SSW3.1 kmh SSW 3.1 mph5.0 kmh 29.94 in1013.9 mb 0.00 in0.0 mm 0.00 in0.0 mm 0.00 in0.0 mm
02:50 AM 64.9°F18.3°C 53.3°F11.8°C 66% 1.9 mph S3.1 kmh S 3.1 mph5.0 kmh 29.94 in1013.9 mb 0.00 in0.0 mm 0.00 in0.0 mm 0.00 in0.0 mm
02:45 AM 64.9°F18.3°C 53.3°F11.8°C 66% 2.0 mph S3.2 kmh S 3.1 mph5.0 kmh 29.94 in1013.9 mb 0.00 in0.0 mm 0.00 in0.0 mm 0.00 in0.0 mm
02:40 AM 64.9°F18.3°C 53.3°F11.8°C 66% 1.4 mph SSW2.3 kmh SSW 3.1 mph5.0 kmh 29.94 in1013.9 mb 0.00 in0.0 mm 0.00 in0.0 mm 0.00 in0.0 mm
02:35 AM 65.1°F18.4°C 53.1°F11.7°C 65% 1.2 mph SSW1.9 kmh SSW 2.2 mph3.5 kmh 29.95 in1014.2 mb 0.00 in0.0 mm 0.00 in0.0 mm 0.00 in0.0 mm
02:30 AM 65.3°F18.5°C 53.3°F11.8°C 65% 1.4 mph S2.3 kmh S 2.2 mph3.5 kmh 29.95 in1014.2 mb 0.00 in0.0 mm 0.00 in0.0 mm 0.00 in0.0 mm
02:25 AM 65.3°F18.5°C 53.3°F11.8°C 65% 1.5 mph S2.4 kmh S 2.2 mph3.5 kmh 29.94 in1013.9 mb 0.00 in0.0 mm 0.00 in0.0 mm 0.00 in0.0 mm
02:20 AM 65.5°F18.6°C 53.4°F11.9°C 65% 1.4 mph S2.3 kmh S 2.2 mph3.5 kmh 29.95 in1014.2 mb 0.00 in0.0 mm 0.00 in0.0 mm 0.00 in0.0 mm
02:15 AM 65.5°F18.6°C 53.0°F11.7°C 64% 1.5 mph S2.4 kmh S 2.2 mph3.5 kmh 29.95 in1014.2 mb 0.00 in0.0 mm 0.00 in0.0 mm 0.00 in0.0 mm
02:10 AM 65.7°F18.7°C 53.2°F11.8°C 64% 1.7 mph S2.7 kmh S 2.2 mph3.5 kmh 29.95 in1014.2 mb 0.00 in0.0 mm 0.00 in0.0 mm 0.00 in0.0 mm
02:05 AM 65.7°F18.7°C 53.2°F11.8°C 64% 1.7 mph S2.7 kmh S 2.2 mph3.5 kmh 29.96 in1014.6 mb 0.00 in0.0 mm 0.00 in0.0 mm 0.00 in0.0 mm
02:00 AM 65.7°F18.7°C 53.2°F11.8°C 64% 1.6 mph S2.6 kmh S 2.2 mph3.5 kmh 29.96 in1014.6 mb 0.00 in0.0 mm 0.00 in0.0 mm 0.00 in0.0 mm
01:55 AM 65.7°F18.7°C 53.2°F11.8°C 64% 1.7 mph S2.7 kmh S 2.2 mph3.5 kmh 29.96 in1014.6 mb 0.00 in0.0 mm 0.00 in0.0 mm 0.00 in0.0 mm
01:50 AM 65.8°F18.8°C 53.3°F11.8°C 64% 1.6 mph S2.6 kmh S 2.2 mph3.5 kmh 29.96 in1014.6 mb 0.00 in0.0 mm 0.00 in0.0 mm 0.00 in0.0 mm
01:45 AM 66.0°F18.9°C 53.5°F11.9°C 64% 1.9 mph S3.1 kmh S 2.2 mph3.5 kmh 29.96 in1014.6 mb 0.00 in0.0 mm 0.00 in0.0 mm 0.00 in0.0 mm
01:40 AM 65.8°F18.8°C 53.3°F11.8°C 64% 2.2 mph S3.5 kmh S 3.8 mph6.1 kmh 29.96 in1014.6 mb 0.00 in0.0 mm 0.00 in0.0 mm 0.00 in0.0 mm
01:35 AM 65.8°F18.8°C 53.3°F11.8°C 64% 2.1 mph S3.4 kmh S 3.8 mph6.1 kmh 29.97 in1014.9 mb 0.00 in0.0 mm 0.00 in0.0 mm 0.00 in0.0 mm
01:30 AM 65.8°F18.8°C 53.3°F11.8°C 64% 2.0 mph S3.2 kmh S 2.2 mph3.5 kmh 29.97 in1014.9 mb 0.00 in0.0 mm 0.00 in0.0 mm 0.00 in0.0 mm
01:25 AM 65.8°F18.8°C 53.3°F11.8°C 64% 1.9 mph S3.1 kmh S 2.2 mph3.5 kmh 29.97 in1014.9 mb 0.00 in0.0 mm 0.00 in0.0 mm 0.00 in0.0 mm
01:20 AM 65.8°F18.8°C 53.3°F11.8°C 64% 1.9 mph SSE3.1 kmh SSE 3.1 mph5.0 kmh 29.98 in1015.2 mb 0.00 in0.0 mm 0.00 in0.0 mm 0.00 in0.0 mm
01:15 AM 66.0°F18.9°C 53.5°F11.9°C 64% 1.9 mph SSE3.1 kmh SSE 3.1 mph5.0 kmh 29.97 in1014.9 mb 0.00 in0.0 mm 0.00 in0.0 mm 0.00 in0.0 mm
01:10 AM 65.8°F18.8°C 53.8°F12.1°C 65% 1.7 mph S2.7 kmh S 2.2 mph3.5 kmh 29.97 in1014.9 mb 0.00 in0.0 mm 0.00 in0.0 mm 0.00 in0.0 mm
01:05 AM 65.8°F18.8°C 53.8°F12.1°C 65% 1.7 mph S2.7 kmh S 2.2 mph3.5 kmh 29.97 in1014.9 mb 0.00 in0.0 mm 0.00 in0.0 mm 0.00 in0.0 mm
01:00 AM 65.8°F18.8°C 53.8°F12.1°C 65% 1.6 mph S2.6 kmh S 2.2 mph3.5 kmh 29.98 in1015.2 mb 0.00 in0.0 mm 0.00 in0.0 mm 0.00 in0.0 mm
12:55 AM 65.8°F18.8°C 53.8°F12.1°C 65% 1.6 mph S2.6 kmh S 2.2 mph3.5 kmh 29.98 in1015.2 mb 0.00 in0.0 mm 0.00 in0.0 mm 0.00 in0.0 mm
12:50 AM 65.8°F18.8°C 53.8°F12.1°C 65% 1.7 mph S2.7 kmh S 2.2 mph3.5 kmh 29.98 in1015.2 mb 0.00 in0.0 mm 0.00 in0.0 mm 0.00 in0.0 mm
12:45 AM 65.7°F18.7°C 53.6°F12.0°C 65% 1.8 mph S2.9 kmh S 2.2 mph3.5 kmh 29.98 in1015.2 mb 0.00 in0.0 mm 0.00 in0.0 mm 0.00 in0.0 mm
12:40 AM 65.7°F18.7°C 53.6°F12.0°C 65% 1.1 mph S1.8 kmh S 2.2 mph3.5 kmh 29.98 in1015.2 mb 0.00 in0.0 mm 0.00 in0.0 mm 0.00 in0.0 mm
12:35 AM 65.8°F18.8°C 53.8°F12.1°C 65% 1.1 mph SSE1.8 kmh SSE 2.2 mph3.5 kmh 29.98 in1015.2 mb 0.00 in0.0 mm 0.00 in0.0 mm 0.00 in0.0 mm
12:30 AM 66.0°F18.9°C 53.9°F12.2°C 65% 1.8 mph S2.9 kmh S 3.1 mph5.0 kmh 29.99 in1015.6 mb 0.00 in0.0 mm 0.00 in0.0 mm 0.00 in0.0 mm
12:25 AM 66.2°F19.0°C 54.1°F12.3°C 65% 1.7 mph SSE2.7 kmh SSE 3.1 mph5.0 kmh 29.99 in1015.6 mb 0.00 in0.0 mm 0.00 in0.0 mm 0.00 in0.0 mm
12:20 AM 66.2°F19.0°C 54.1°F12.3°C 65% 1.7 mph SSE2.7 kmh SSE 2.2 mph3.5 kmh 29.99 in1015.6 mb 0.00 in0.0 mm 0.00 in0.0 mm 0.00 in0.0 mm
12:15 AM 66.4°F19.1°C 54.3°F12.4°C 65% 1.6 mph S2.6 kmh S 2.2 mph3.5 kmh 29.99 in1015.6 mb 0.00 in0.0 mm 0.00 in0.0 mm 0.00 in0.0 mm
12:10 AM 66.4°F19.1°C 54.3°F12.4°C 65% 1.7 mph S2.7 kmh S 2.2 mph3.5 kmh 29.99 in1015.6 mb 0.00 in0.0 mm 0.00 in0.0 mm 0.00 in0.0 mm
12:05 AM 66.4°F19.1°C 53.9°F12.2°C 64% 1.6 mph S2.6 kmh S 2.2 mph3.5 kmh 29.99 in1015.6 mb 0.00 in0.0 mm 0.00 in0.0 mm 0.00 in0.0 mm
12:00 AM 66.6°F19.2°C 54.0°F12.2°C 64% 1.5 mph S2.4 kmh S 2.2 mph3.5 kmh 29.99 in1015.6 mb 0.00 in0.0 mm 0.00 in0.0 mm 0.00 in0.0 mm